Decoded Metar for LELL (SABADELL in SPAIN) (IATA:QSA) | Meteo·Mobile Aviation Weather
aviador You're here:

LELL Decoded Metar

SABADELL in SPAIN
Report Time2018-08-16 00:30:00
UTC Time2018-08-16 00:48:15
Flight Rules vfr VFR
Wind280° at 04 kt
W.Decomp.*RWY 31: 3.5 kt HW 2 kt LCW
W.Rank280° ranks 3
Current wind is below 280° avg. (5.8)
Visibility9999 m
Phenomena:N/A
Clouds:N/A
Expected CloudBase > 800 ft AGL from Temp-Dew spread
CeilingNone
Temp22°C (ISA +8)
Dew Point20°C (88% RH)
QNH1017 hPa
Density Alt1,588 ft
Elevation485 ft
Report Wrong Elevation
Raw Report
LELL 160030Z AUTO 28004KT CAVOK 22/20 Q1017=

Extra information for LELL:More info

Metar Taf Metar & Taf Last 4 Metars F.Rules Stats Wind Profile Meteogram Temp Stats Airport Information Weather charts Add Link Nearby VenuesMetar ALERT Operation Metar Decoded Social comments

Aeroclub BS Web Page